Time;durP1;ratioP1;P1;durP2;ratioP2;P2;SDS_P1;SDS_P2;PMS_P1;PMS_P2;Temp;Humidity;BMP_temperature;BMP_pressure;BME280_temperature;BME280_humidity;BME280_pressure;Samples;Min_cycle;Max_cycle;Signal;HPM_P1;HPM_P2
2022/08/11 00:01:11;;;;;;;6.00;2.45;;;;;;;;;;5093325;28;20107;-72
2022/08/11 00:03:43;;;;;;;4.50;2.50;;;;;;;;;;5093408;28;20055;-71
2022/08/11 00:06:10;;;;;;;5.07;2.70;;;;;;;;;;5093243;28;20026;-71
2022/08/11 00:08:36;;;;;;;5.55;2.65;;;;;;;;;;5075091;28;20026;-72
2022/08/11 00:11:04;;;;;;;3.47;2.50;;;;;;;;;;5093204;28;20028;-71
2022/08/11 00:13:39;;;;;;;5.07;2.53;;;;;;;;;;5092973;28;20028;-72
2022/08/11 00:16:13;;;;;;;4.82;2.50;;;;;;;;;;5093761;28;20024;-72
2022/08/11 00:18:40;;;;;;;5.43;2.63;;;;;;;;;;5097597;28;20054;-72
2022/08/11 00:21:06;;;;;;;5.72;2.75;;;;;;;;;;5097664;28;20103;-71
2022/08/11 00:23:32;;;;;;;13.90;3.00;;;;;;;;;;5097889;28;20445;-71
2022/08/11 00:25:58;;;;;;;7.07;2.65;;;;;;;;;;5097358;28;20032;-71
2022/08/11 00:28:31;;;;;;;3.78;2.45;;;;;;;;;;5079073;28;20477;-71
2022/08/11 00:31:08;;;;;;;5.35;3.05;;;;;;;;;;5097371;28;20070;-71
2022/08/11 00:33:39;;;;;;;5.13;2.42;;;;;;;;;;5097486;28;20489;-71
2022/08/11 00:36:06;;;;;;;4.55;2.53;;;;;;;;;;5097414;28;20024;-71
2022/08/11 00:38:36;;;;;;;7.43;2.47;;;;;;;;;;5097332;28;20028;-71
2022/08/11 00:41:27;;;;;;;4.30;2.63;;;;;;;;;;5097103;28;20028;-71
2022/08/11 00:44:33;;;;;;;4.53;2.90;;;;;;;;;;5078871;28;20061;-71
2022/08/11 00:47:28;;;;;;;4.97;2.50;;;;;;;;;;5096917;28;20024;-71
2022/08/11 00:50:30;;;;;;;4.78;2.40;;;;;;;;;;5097043;28;20101;-71
2022/08/11 00:53:11;;;;;;;4.32;2.70;;;;;;;;;;5096638;28;20027;-71
2022/08/11 00:56:24;;;;;;;2.55;2.15;;;;;;;;;;5096835;28;20116;-70
2022/08/11 00:59:25;;;;;;;4.90;2.65;;;;;;;;;;5096511;28;20082;-71
2022/08/11 01:02:14;;;;;;;6.65;2.58;;;;;;;;;;5096738;28;20093;-71
2022/08/11 01:05:10;;;;;;;8.50;2.70;;;;;;;;;;5096442;28;20036;-71
2022/08/11 01:08:14;;;;;;;5.88;2.70;;;;;;;;;;5096869;28;20031;-78
2022/08/11 01:10:56;;;;;;;6.97;3.03;;;;;;;;;;5088580;28;20027;-80
2022/08/11 01:13:36;;;;;;;6.35;2.53;;;;;;;;;;5085407;28;20115;-79
2022/08/11 01:16:23;;;;;;;5.93;2.85;;;;;;;;;;5104096;28;20032;-79
2022/08/11 01:19:26;;;;;;;3.25;2.40;;;;;;;;;;5103577;28;20085;-80
2022/08/11 01:22:11;;;;;;;6.72;2.70;;;;;;;;;;5104384;28;20130;-80
2022/08/11 01:24:59;;;;;;;6.40;2.88;;;;;;;;;;5101765;28;20028;-80
2022/08/11 01:27:49;;;;;;;13.60;2.88;;;;;;;;;;5105122;28;20034;-80
2022/08/11 01:30:40;;;;;;;6.20;2.63;;;;;;;;;;5086548;28;20020;-80
2022/08/11 01:33:21;;;;;;;4.30;2.78;;;;;;;;;;5106087;28;20020;-81
2022/08/11 01:36:14;;;;;;;6.30;2.95;;;;;;;;;;5087325;28;20024;-80
2022/08/11 01:39:24;;;;;;;9.18;3.05;;;;;;;;;;5105588;28;20020;-80
2022/08/11 01:45:06;;;;;;;6.72;3.10;;;;;;;;;;5090811;28;20124;-80
2022/08/11 01:47:51;;;;;;;3.78;2.88;;;;;;;;;;5104605;28;20024;-80
2022/08/11 01:50:22;;;;;;;3.28;2.53;;;;;;;;;;5087169;28;20035;-80
2022/08/11 01:53:06;;;;;;;4.28;2.88;;;;;;;;;;5104144;28;20093;-80
2022/08/11 01:55:41;;;;;;;5.97;3.20;;;;;;;;;;5104698;28;20024;-79
2022/08/11 01:58:25;;;;;;;4.65;3.10;;;;;;;;;;5105059;28;20032;-79
2022/08/11 02:01:05;;;;;;;;;;;;;;;;;;5105997;28;20050;-81
2022/08/11 02:03:43;;;;;;;3.75;2.65;;;;;;;;;;5104038;28;19908;-80
2022/08/11 02:09:42;;;;;;;8.57;2.90;;;;;;;;;;5103482;28;20038;-81
2022/08/11 02:12:21;;;;;;;5.18;2.85;;;;;;;;;;5086967;28;20034;-80
2022/08/11 02:15:08;;;;;;;6.28;3.00;;;;;;;;;;5102932;28;20075;-79
2022/08/11 02:18:00;;;;;;;7.45;3.10;;;;;;;;;;5104954;28;20063;-79
2022/08/11 02:26:32;;;;;;;4.43;3.08;;;;;;;;;;5103477;28;20087;-79
2022/08/11 02:29:37;;;;;;;5.35;2.70;;;;;;;;;;5104248;28;20020;-80
2022/08/11 02:35:12;;;;;;;4.30;2.80;;;;;;;;;;5104755;28;20026;-81
2022/08/11 02:37:49;;;;;;;5.05;2.90;;;;;;;;;;5104034;28;20024;-81
2022/08/11 02:40:22;;;;;;;9.50;3.00;;;;;;;;;;5103241;28;20028;-80
2022/08/11 02:42:47;;;;;;;7.22;3.50;;;;;;;;;;5087131;28;20091;-79
2022/08/11 02:45:30;;;;;;;4.27;2.80;;;;;;;;;;5104707;28;20052;-81
2022/08/11 02:51:26;;;;;;;5.28;2.90;;;;;;;;;;5104770;28;20035;-80
2022/08/11 02:54:04;;;;;;;7.10;2.90;;;;;;;;;;5101897;28;20027;-81
2022/08/11 02:56:43;;;;;;;7.35;2.83;;;;;;;;;;5102835;28;20024;-80
2022/08/11 03:02:34;;;;;;;10.88;3.20;;;;;;;;;;5102626;28;20115;-78
2022/08/11 03:05:19;;;;;;;4.88;3.25;;;;;;;;;;5103951;28;20024;-80
2022/08/11 03:08:27;;;;;;;5.18;2.85;;;;;;;;;;5104164;28;20016;-81
2022/08/11 03:17:23;;;;;;;5.93;3.85;;;;;;;;;;5101997;28;20500;-81
2022/08/11 03:20:01;;;;;;;6.53;3.80;;;;;;;;;;5084348;28;20028;-80
2022/08/11 03:22:48;;;;;;;16.77;4.55;;;;;;;;;;5084583;28;20020;-81
2022/08/11 03:25:45;;;;;;;5.68;3.15;;;;;;;;;;5101530;28;20085;-80
2022/08/11 03:28:25;;;;;;;4.80;2.90;;;;;;;;;;5101630;28;20012;-80
2022/08/11 03:31:07;;;;;;;5.15;3.10;;;;;;;;;;5083574;28;20496;-81
2022/08/11 03:34:01;;;;;;;10.23;3.35;;;;;;;;;;5102646;28;20469;-81
2022/08/11 03:36:49;;;;;;;4.28;3.00;;;;;;;;;;5092128;28;20032;-80
2022/08/11 03:39:57;;;;;;;9.75;3.17;;;;;;;;;;5103339;28;20023;-80
2022/08/11 03:42:40;;;;;;;9.43;3.05;;;;;;;;;;5086554;28;20548;-80
2022/08/11 03:45:25;;;;;;;4.90;2.90;;;;;;;;;;5086343;28;20024;-79
2022/08/11 03:48:28;;;;;;;7.22;3.00;;;;;;;;;;5085483;28;20044;-81
2022/08/11 03:51:19;;;;;;;5.22;3.05;;;;;;;;;;5104507;28;20028;-78
2022/08/11 03:54:03;;;;;;;5.15;2.92;;;;;;;;;;5103636;28;20047;-80
2022/08/11 03:56:54;;;;;;;4.28;3.08;;;;;;;;;;5104232;28;20020;-80
2022/08/11 03:59:44;;;;;;;5.93;3.08;;;;;;;;;;5102893;28;20493;-80
2022/08/11 04:02:34;;;;;;;7.93;3.10;;;;;;;;;;5102143;28;20063;-79
2022/08/11 04:05:44;;;;;;;4.30;3.20;;;;;;;;;;5102746;28;20085;-80
2022/08/11 04:08:27;;;;;;;7.22;3.30;;;;;;;;;;5102692;28;20024;-80
2022/08/11 04:11:17;;;;;;;5.90;3.10;;;;;;;;;;5085748;28;20093;-79
2022/08/11 04:17:30;;;;;;;4.65;3.13;;;;;;;;;;5103452;28;20524;-80
2022/08/11 04:20:17;;;;;;;6.88;3.40;;;;;;;;;;5085590;28;20028;-81
2022/08/11 04:22:53;;;;;;;5.85;3.40;;;;;;;;;;5103163;28;20031;-81
2022/08/11 04:25:40;;;;;;;6.47;3.47;;;;;;;;;;5103240;28;20469;-82
2022/08/11 04:28:11;;;;;;;7.38;3.42;;;;;;;;;;5102364;28;20473;-81
2022/08/11 04:30:58;;;;;;;6.10;3.35;;;;;;;;;;5102806;28;20077;-80
2022/08/11 04:33:51;;;;;;;7.82;3.40;;;;;;;;;;5103422;28;20028;-80
2022/08/11 04:39:26;;;;;;;7.72;3.60;;;;;;;;;;5103839;28;20050;-81
2022/08/11 04:45:24;;;;;;;6.95;3.50;;;;;;;;;;5103385;28;20050;-80
2022/08/11 05:03:35;;;;;;;4.88;2.92;;;;;;;;;;5102286;28;20085;-81
2022/08/11 05:06:23;;;;;;;6.28;3.30;;;;;;;;;;5091450;28;20032;-81
2022/08/11 05:09:20;;;;;;;6.00;3.30;;;;;;;;;;5107921;28;20016;-81
2022/08/11 05:12:01;;;;;;;6.40;3.40;;;;;;;;;;5090406;28;20024;-81
2022/08/11 05:35:40;;;;;;;10.50;3.65;;;;;;;;;;5106436;28;20121;-81
2022/08/11 05:57:48;;;;;;;8.75;3.40;;;;;;;;;;5107361;28;20035;-79
2022/08/11 06:00:14;;;;;;;4.90;3.17;;;;;;;;;;5107261;28;20032;-80
2022/08/11 06:02:50;;;;;;;6.93;3.42;;;;;;;;;;5088064;28;20078;-80
2022/08/11 06:05:16;;;;;;;5.70;3.35;;;;;;;;;;5106625;28;20091;-80
2022/08/11 06:07:42;;;;;;;5.43;3.70;;;;;;;;;;5106286;28;20050;-80
2022/08/11 06:10:08;;;;;;;5.25;3.30;;;;;;;;;;5088124;28;20020;-79
2022/08/11 06:12:36;;;;;;;6.65;3.50;;;;;;;;;;5105477;28;20133;-80
2022/08/11 06:15:07;;;;;;;6.55;3.30;;;;;;;;;;5105051;28;20016;-78
2022/08/11 06:17:35;;;;;;;6.03;3.22;;;;;;;;;;5086101;28;20036;-79
2022/08/11 06:20:08;;;;;;;5.55;3.38;;;;;;;;;;5102987;28;20024;-79
2022/08/11 06:22:34;;;;;;;5.88;3.20;;;;;;;;;;5107113;28;20031;-81
2022/08/11 06:25:03;;;;;;;9.75;3.10;;;;;;;;;;5112032;28;20038;-79
2022/08/11 06:27:30;;;;;;;5.22;3.20;;;;;;;;;;5090948;28;20035;-79
2022/08/11 06:29:57;;;;;;;6.35;3.00;;;;;;;;;;5103115;28;20119;-79
2022/08/11 06:32:34;;;;;;;7.40;3.35;;;;;;;;;;5101002;28;20374;-79
2022/08/11 06:35:25;;;;;;;7.57;3.30;;;;;;;;;;5101051;28;20024;-81
2022/08/11 06:38:15;;;;;;;4.25;3.42;;;;;;;;;;5103017;28;20042;-79
2022/08/11 06:43:57;;;;;;;5.15;3.20;;;;;;;;;;5099430;28;20062;-78
2022/08/11 06:46:30;;;;;;;5.15;3.58;;;;;;;;;;5098887;28;20032;-80
2022/08/11 06:48:56;;;;;;;6.45;3.22;;;;;;;;;;5098466;28;20020;-78
2022/08/11 06:51:22;;;;;;;5.40;3.13;;;;;;;;;;5098255;28;20554;-79
2022/08/11 06:53:55;;;;;;;6.72;3.20;;;;;;;;;;5099656;28;20527;-79
2022/08/11 07:02:03;;;;;;;8.73;3.05;;;;;;;;;;5099104;28;20558;-78
2022/08/11 07:04:38;;;;;;;5.70;3.00;;;;;;;;;;5099051;28;20063;-79
2022/08/11 07:15:53;;;;;;;4.30;2.92;;;;;;;;;;5105203;28;20508;-79
2022/08/11 07:30:02;;;;;;;4.90;2.83;;;;;;;;;;5106605;28;20031;-80
2022/08/11 07:32:32;;;;;;;6.13;2.78;;;;;;;;;;5070705;28;20024;-81
2022/08/11 07:35:23;;;;;;;4.50;2.88;;;;;;;;;;5085132;28;20028;-79
2022/08/11 07:37:55;;;;;;;7.35;3.10;;;;;;;;;;5090133;28;20047;-80
2022/08/11 07:40:23;;;;;;;4.87;2.70;;;;;;;;;;5087853;28;20404;-79
2022/08/11 07:42:51;;;;;;;4.20;2.80;;;;;;;;;;5105959;28;20257;-79
2022/08/11 07:53:32;;;;;;;8.80;2.65;;;;;;;;;;5102068;28;20050;-80
2022/08/11 07:55:59;;;;;;;3.85;2.50;;;;;;;;;;5084736;28;20032;-80
2022/08/11 08:17:59;;;;;;;6.65;2.08;;;;;;;;;;5102613;28;20052;-79
2022/08/11 08:20:31;;;;;;;3.72;1.92;;;;;;;;;;5102973;28;20024;-78
2022/08/11 08:22:58;;;;;;;2.95;1.98;;;;;;;;;;5101362;28;20361;-79
2022/08/11 08:25:29;;;;;;;3.45;2.15;;;;;;;;;;5100092;28;20036;-78
2022/08/11 08:27:56;;;;;;;3.03;1.92;;;;;;;;;;5083087;28;20076;-79
2022/08/11 08:33:08;;;;;;;5.65;2.03;;;;;;;;;;5104692;28;20027;-79
2022/08/11 08:35:35;;;;;;;3.55;1.90;;;;;;;;;;5102253;28;20469;-78
2022/08/11 08:38:01;;;;;;;7.30;1.90;;;;;;;;;;5098216;28;20084;-78
2022/08/11 08:40:27;;;;;;;4.90;2.00;;;;;;;;;;5104715;28;20060;-78
2022/08/11 08:42:55;;;;;;;2.40;1.85;;;;;;;;;;5106042;28;20058;-79
2022/08/11 08:45:22;;;;;;;2.85;1.95;;;;;;;;;;5106541;28;20024;-77
2022/08/11 08:47:57;;;;;;;2.40;1.50;;;;;;;;;;5105400;28;20023;-79
2022/08/11 08:51:32;;;;;;;1.88;1.40;;;;;;;;;;5105824;28;20020;-79
2022/08/11 08:53:11;;;;;;;3.55;1.50;;;;;;;;;;5105472;28;20058;-77
2022/08/11 08:55:37;;;;;;;4.22;1.65;;;;;;;;;;5106528;28;20024;-77
2022/08/11 08:58:03;;;;;;;2.65;1.75;;;;;;;;;;5088582;28;20473;-78
2022/08/11 09:00:40;;;;;;;6.72;2.00;;;;;;;;;;5104965;28;20056;-79
2022/08/11 09:03:05;;;;;;;3.92;1.75;;;;;;;;;;5088254;28;20024;-79
2022/08/11 09:05:31;;;;;;;1.90;1.70;;;;;;;;;;5105070;28;20097;-78
2022/08/11 09:07:57;;;;;;;4.35;1.90;;;;;;;;;;5104155;28;20099;-79
2022/08/11 09:10:24;;;;;;;2.92;1.75;;;;;;;;;;5104666;28;20023;-78
2022/08/11 09:12:49;;;;;;;2.25;1.60;;;;;;;;;;5086462;28;20057;-78
2022/08/11 09:15:17;;;;;;;6.18;1.80;;;;;;;;;;5088077;28;20032;-78
2022/08/11 09:17:47;;;;;;;7.05;2.08;;;;;;;;;;5089953;28;20020;-79
2022/08/11 09:20:24;;;;;;;4.05;1.67;;;;;;;;;;5107721;28;20030;-79
2022/08/11 09:28:28;;;;;;;4.63;1.90;;;;;;;;;;5104792;28;20496;-80
2022/08/11 09:31:00;;;;;;;4.80;2.15;;;;;;;;;;5106457;28;20109;-78
2022/08/11 09:33:30;;;;;;;3.25;1.77;;;;;;;;;;5106647;28;20016;-80
2022/08/11 09:35:56;;;;;;;3.33;1.40;;;;;;;;;;5103407;28;20119;-80
2022/08/11 09:41:32;;;;;;;2.95;1.70;;;;;;;;;;5106341;28;20038;-78
2022/08/11 09:46:43;;;;;;;4.97;1.80;;;;;;;;;;5089358;28;20071;-78
2022/08/11 09:49:09;;;;;;;3.75;1.60;;;;;;;;;;5102835;28;20024;-79
2022/08/11 09:51:34;;;;;;;4.22;1.90;;;;;;;;;;5104550;28;20069;-80
2022/08/11 09:54:05;;;;;;;8.30;1.48;;;;;;;;;;5103102;28;20031;-77
2022/08/11 09:59:17;;;;;;;5.00;1.60;;;;;;;;;;5103438;28;20117;-77
2022/08/11 10:01:47;;;;;;;3.17;1.60;;;;;;;;;;5104078;28;20028;-79
2022/08/11 10:04:16;;;;;;;3.40;1.67;;;;;;;;;;5105496;28;20023;-77
2022/08/11 10:07:03;;;;;;;7.78;2.10;;;;;;;;;;5104215;28;20057;-76
2022/08/11 10:09:50;;;;;;;4.72;1.75;;;;;;;;;;5085066;28;20497;-78
2022/08/11 10:12:26;;;;;;;3.17;1.60;;;;;;;;;;5102787;28;20028;-78
2022/08/11 10:15:36;;;;;;;4.15;1.67;;;;;;;;;;5103302;28;20024;-79
2022/08/11 10:21:34;;;;;;;2.35;1.67;;;;;;;;;;5102841;28;20023;-79
2022/08/11 10:26:53;;;;;;;6.53;1.52;;;;;;;;;;5100611;28;20043;-78
2022/08/11 10:34:51;;;;;;;3.40;1.50;;;;;;;;;;5103825;28;20030;-78
2022/08/11 10:37:21;;;;;;;4.10;1.45;;;;;;;;;;5104954;28;20080;-78
2022/08/11 10:39:47;;;;;;;4.60;1.35;;;;;;;;;;5086517;28;20023;-78
2022/08/11 10:45:00;;;;;;;4.80;1.67;;;;;;;;;;5103830;28;20027;-78
2022/08/11 10:47:35;;;;;;;4.30;1.63;;;;;;;;;;5102528;28;20385;-77
2022/08/11 11:01:12;;;;;;;2.08;1.30;;;;;;;;;;5103347;28;20035;-78
2022/08/11 11:03:37;;;;;;;3.92;1.30;;;;;;;;;;5102325;28;20069;-79
2022/08/11 11:06:35;;;;;;;3.05;1.30;;;;;;;;;;5084857;28;20040;-79
2022/08/11 11:09:06;;;;;;;1.98;1.15;;;;;;;;;;5058554;28;20070;-77
2022/08/11 11:19:41;;;;;;;1.35;1.08;;;;;;;;;;5100859;28;20092;-78
2022/08/11 11:25:04;;;;;;;2.40;1.00;;;;;;;;;;5101048;28;20512;-77
2022/08/11 11:27:50;;;;;;;2.80;1.15;;;;;;;;;;5082298;28;20024;-77
2022/08/11 11:30:17;;;;;;;3.88;1.23;;;;;;;;;;5099047;28;20035;-78
2022/08/11 11:33:05;;;;;;;1.40;1.10;;;;;;;;;;5101558;28;20028;-77
2022/08/11 11:36:05;;;;;;;1.83;1.30;;;;;;;;;;5083209;28;20024;-77
2022/08/11 11:38:30;;;;;;;3.58;1.40;;;;;;;;;;5100887;28;20028;-78
2022/08/11 11:43:40;;;;;;;;;;;;;;;;;;5100026;28;20026;-78
2022/08/11 11:46:08;;;;;;;2.05;1.10;;;;;;;;;;5099603;28;20360;-78
2022/08/11 11:48:35;;;;;;;2.22;0.90;;;;;;;;;;5083493;28;20028;-80
2022/08/11 11:51:00;;;;;;;2.28;1.00;;;;;;;;;;5104115;28;20024;-82
2022/08/11 11:53:26;;;;;;;1.63;1.10;;;;;;;;;;5103370;28;20024;-77
2022/08/11 11:55:51;;;;;;;2.00;1.10;;;;;;;;;;5097608;28;20036;-78
2022/08/11 12:01:18;;;;;;;1.98;1.25;;;;;;;;;;5097761;28;20032;-78
2022/08/11 12:03:47;;;;;;;2.50;1.10;;;;;;;;;;5078918;28;20031;-79
2022/08/11 12:06:13;;;;;;;1.85;1.15;;;;;;;;;;5097659;28;20103;-77
2022/08/11 12:08:39;;;;;;;2.70;1.10;;;;;;;;;;5080628;28;20377;-77
2022/08/11 12:14:19;;;;;;;5.10;0.95;;;;;;;;;;5060684;28;20482;-78
2022/08/11 12:16:46;;;;;;;2.10;1.35;;;;;;;;;;5061854;28;20036;-78
2022/08/11 12:19:15;;;;;;;4.60;1.25;;;;;;;;;;5081641;28;20053;-77
2022/08/11 12:27:19;;;;;;;3.90;1.00;;;;;;;;;;5086274;28;20454;-78
2022/08/11 12:27:19;;;;;;;3.70;1.00;;;;;;;;;;5104091;28;20054;-78
2022/08/11 12:29:51;;;;;;;0.85;0.80;;;;;;;;;;5103921;28;20050;-77
2022/08/11 12:32:18;;;;;;;2.33;1.20;;;;;;;;;;5085184;28;20027;-78
2022/08/11 12:34:44;;;;;;;3.13;1.10;;;;;;;;;;5085294;28;20066;-80
2022/08/11 12:37:11;;;;;;;2.85;1.10;;;;;;;;;;5103447;28;20082;-79
2022/08/11 12:45:28;;;;;;;1.05;0.80;;;;;;;;;;5105405;28;20046;-78
2022/08/11 12:54:04;;;;;;;1.20;1.00;;;;;;;;;;5103537;28;20050;-79
2022/08/11 13:05:04;;;;;;;2.22;1.10;;;;;;;;;;5104139;28;20026;-80
2022/08/11 13:07:55;;;;;;;1.17;1.00;;;;;;;;;;5084990;28;20020;-80
2022/08/11 13:13:25;;;;;;;;;;;;;;;;;;5098274;28;20035;-79
2022/08/11 13:15:51;;;;;;;5.18;1.02;;;;;;;;;;5102834;28;20281;-77
2022/08/11 13:18:21;;;;;;;3.55;1.38;;;;;;;;;;5102813;28;20020;-77
2022/08/11 13:20:48;;;;;;;10.77;1.40;;;;;;;;;;5101677;28;20028;-76
2022/08/11 13:23:15;;;;;;;2.22;1.10;;;;;;;;;;5100021;28;20024;-77
2022/08/11 13:25:42;;;;;;;5.32;1.25;;;;;;;;;;5100682;28;20020;-76
2022/08/11 13:28:09;;;;;;;6.30;1.20;;;;;;;;;;5101748;28;20026;-77
2022/08/11 13:33:19;;;;;;;1.40;1.20;;;;;;;;;;5101611;28;20031;-75
2022/08/11 13:35:48;;;;;;;2.15;1.20;;;;;;;;;;5081802;28;20028;-76
2022/08/11 13:38:16;;;;;;;3.33;1.15;;;;;;;;;;5098480;28;20052;-77
2022/08/11 13:40:42;;;;;;;2.72;1.10;;;;;;;;;;5097460;28;20469;-77
2022/08/11 13:43:08;;;;;;;4.28;1.10;;;;;;;;;;5096142;28;20042;-78
2022/08/11 13:45:35;;;;;;;1.98;1.40;;;;;;;;;;5098004;28;20064;-79
2022/08/11 13:48:05;;;;;;;4.38;1.20;;;;;;;;;;5097610;28;20024;-78
2022/08/11 13:53:20;;;;;;;2.33;1.33;;;;;;;;;;5097630;28;20096;-78
2022/08/11 13:55:46;;;;;;;2.08;1.40;;;;;;;;;;5097864;28;20031;-78
2022/08/11 13:58:12;;;;;;;2.90;1.20;;;;;;;;;;5097711;28;20032;-77
2022/08/11 14:00:40;;;;;;;7.75;1.50;;;;;;;;;;5097015;28;20028;-77
2022/08/11 14:03:10;;;;;;;3.40;1.38;;;;;;;;;;5098570;28;20035;-77
2022/08/11 14:05:45;;;;;;;4.00;1.23;;;;;;;;;;5097620;28;20483;-78
2022/08/11 14:08:14;;;;;;;3.47;1.40;;;;;;;;;;5097845;28;20111;-80
2022/08/11 14:10:40;;;;;;;5.32;1.33;;;;;;;;;;5097513;28;20024;-78
2022/08/11 14:16:04;;;;;;;12.10;1.70;;;;;;;;;;5098409;28;20034;-80
2022/08/11 14:18:31;;;;;;;4.25;1.35;;;;;;;;;;5097893;28;20272;-78
2022/08/11 14:23:49;;;;;;;3.60;1.48;;;;;;;;;;5098039;28;20035;-78
2022/08/11 14:26:22;;;;;;;3.22;1.58;;;;;;;;;;5098214;28;20389;-78
2022/08/11 14:28:48;;;;;;;3.00;1.40;;;;;;;;;;5098003;28;20492;-78
2022/08/11 14:31:14;;;;;;;5.47;1.35;;;;;;;;;;5097137;28;20102;-81
2022/08/11 14:33:41;;;;;;;3.15;1.30;;;;;;;;;;5078809;28;20024;-78
2022/08/11 14:36:09;;;;;;;1.60;1.30;;;;;;;;;;5078759;28;20035;-78
2022/08/11 14:38:34;;;;;;;1.58;1.33;;;;;;;;;;5097204;28;20034;-80
2022/08/11 14:49:16;;;;;;;10.13;1.50;;;;;;;;;;5096862;28;20042;-79
2022/08/11 14:51:41;;;;;;;1.90;1.40;;;;;;;;;;5096917;28;20470;-81
2022/08/11 14:56:53;;;;;;;1.75;1.30;;;;;;;;;;5096922;28;20035;-80
2022/08/11 14:59:18;;;;;;;4.60;1.23;;;;;;;;;;5097027;28;20024;-79
2022/08/11 15:04:29;;;;;;;3.90;1.30;;;;;;;;;;5097167;28;20078;-79
2022/08/11 15:06:55;;;;;;;3.10;1.27;;;;;;;;;;5096585;28;20397;-81
2022/08/11 15:09:20;;;;;;;6.72;1.40;;;;;;;;;;5097044;28;20024;-78
2022/08/11 15:17:15;;;;;;;2.55;1.40;;;;;;;;;;5096538;28;20082;-81
2022/08/11 15:25:11;;;;;;;5.10;1.38;;;;;;;;;;5096462;28;20034;-79
2022/08/11 15:38:54;;;;;;;1.83;1.45;;;;;;;;;;5094593;28;20514;-77
2022/08/11 15:47:00;;;;;;;5.38;1.52;;;;;;;;;;5094076;28;20519;-76
2022/08/11 15:49:33;;;;;;;5.75;1.60;;;;;;;;;;5094307;28;20028;-76
2022/08/11 15:52:09;;;;;;;5.50;1.50;;;;;;;;;;5093975;28;20166;-76
2022/08/11 15:54:41;;;;;;;2.67;1.45;;;;;;;;;;5093513;28;20067;-76
2022/08/11 16:05:16;;;;;;;2.13;1.50;;;;;;;;;;5094219;28;20036;-76
2022/08/11 16:07:47;;;;;;;7.10;1.67;;;;;;;;;;5076324;28;20063;-77
2022/08/11 16:10:20;;;;;;;2.67;1.48;;;;;;;;;;5076030;28;20027;-77
2022/08/11 16:18:41;;;;;;;2.78;1.50;;;;;;;;;;5093778;28;20073;-76
2022/08/11 16:21:16;;;;;;;6.07;1.42;;;;;;;;;;5094015;28;20024;-76
2022/08/11 16:23:44;;;;;;;6.75;1.35;;;;;;;;;;5093763;28;20068;-76
2022/08/11 16:26:12;;;;;;;8.65;1.50;;;;;;;;;;5075135;28;20026;-76
2022/08/11 16:28:39;;;;;;;1.52;1.27;;;;;;;;;;5074672;28;20020;-76
2022/08/11 16:31:09;;;;;;;3.58;1.30;;;;;;;;;;5093216;28;20031;-77
2022/08/11 16:33:36;;;;;;;5.20;1.40;;;;;;;;;;5092824;28;20071;-76
2022/08/11 16:38:48;;;;;;;4.32;1.23;;;;;;;;;;5093481;28;20031;-77
2022/08/11 16:46:58;;;;;;;3.03;1.23;;;;;;;;;;5093608;28;20027;-78
2022/08/11 16:49:30;;;;;;;3.58;1.30;;;;;;;;;;5093167;28;20027;-76
2022/08/11 16:51:56;;;;;;;4.10;1.30;;;;;;;;;;5093600;28;20020;-77
2022/08/11 16:54:21;;;;;;;1.42;1.20;;;;;;;;;;5093773;28;20024;-78
2022/08/11 16:56:51;;;;;;;4.72;1.35;;;;;;;;;;5094078;28;20016;-77
2022/08/11 16:59:29;;;;;;;3.72;1.23;;;;;;;;;;5093790;28;20039;-77
2022/08/11 17:02:11;;;;;;;5.65;4.05;;;;;;;;;;5097170;28;20047;-76
2022/08/11 17:13:15;;;;;;;3.40;1.20;;;;;;;;;;5096898;28;20078;-77
2022/08/11 17:18:39;;;;;;;1.85;1.33;;;;;;;;;;5097238;28;20392;-76
2022/08/11 17:21:06;;;;;;;4.03;1.40;;;;;;;;;;5097146;28;20466;-77
2022/08/11 17:23:46;;;;;;;1.70;1.20;;;;;;;;;;5096929;28;20491;-76
2022/08/11 17:29:37;;;;;;;3.03;1.20;;;;;;;;;;5098676;28;20121;-78
2022/08/11 17:37:44;;;;;;;3.28;1.42;;;;;;;;;;5100537;28;20098;-79
2022/08/11 17:40:12;;;;;;;1.58;1.10;;;;;;;;;;5100381;28;20508;-80
2022/08/11 17:48:24;;;;;;;3.60;1.10;;;;;;;;;;5101346;28;20397;-78
2022/08/11 17:51:00;;;;;;;8.00;1.63;;;;;;;;;;5100131;28;20050;-80
2022/08/11 18:04:48;;;;;;;4.43;1.42;;;;;;;;;;5103037;28;20030;-81
